createdAt,value
2017-06-21T00:01:21.024Z,76.00
2017-06-21T00:03:49.283Z,76.20
2017-06-21T00:06:16.789Z,76.20
2017-06-21T00:08:44.280Z,77.30
2017-06-21T00:11:12.076Z,77.90
2017-06-21T00:13:40.346Z,79.30
2017-06-21T00:16:07.844Z,79.30
2017-06-21T00:18:35.392Z,79.90
2017-06-21T00:21:02.881Z,80.70
2017-06-21T00:23:30.412Z,81.70
2017-06-21T00:25:57.927Z,81.20
2017-06-21T00:28:25.432Z,81.50
2017-06-21T00:30:52.929Z,81.50
2017-06-21T00:33:20.697Z,82.50
2017-06-21T00:35:48.205Z,84.30
2017-06-21T00:38:15.722Z,85.60
2017-06-21T00:40:43.537Z,85.80
2017-06-21T00:43:11.040Z,86.50
2017-06-21T00:45:38.524Z,87.40
2017-06-21T00:48:06.036Z,87.10
2017-06-21T00:50:33.541Z,88.10
2017-06-21T00:53:01.328Z,88.30
2017-06-21T00:55:28.855Z,89.40
2017-06-21T00:57:56.343Z,89.40
2017-06-21T01:00:23.861Z,90.90
2017-06-21T01:02:51.383Z,91.40
2017-06-21T01:05:19.166Z,91.50
2017-06-21T01:07:46.664Z,91.30
2017-06-21T01:10:14.164Z,91.60
2017-06-21T01:12:41.680Z,92.20
2017-06-21T01:15:09.180Z,93.00
2017-06-21T01:17:36.958Z,93.20
2017-06-21T01:20:04.460Z,93.40
2017-06-21T01:22:31.965Z,93.70
2017-06-21T01:24:59.480Z,94.70
2017-06-21T01:27:26.983Z,95.40
2017-06-21T01:29:54.771Z,96.10
2017-06-21T01:32:22.300Z,96.50
2017-06-21T01:34:50.552Z,97.60
2017-06-21T01:37:18.071Z,97.50
2017-06-21T01:39:45.569Z,97.00
2017-06-21T01:42:13.360Z,97.30
2017-06-21T01:44:40.856Z,97.30
2017-06-21T01:47:08.341Z,97.40
2017-06-21T01:49:35.845Z,97.50
2017-06-21T01:52:03.331Z,97.30
2017-06-21T01:54:31.106Z,97.30
2017-06-21T01:56:58.710Z,97.80
2017-06-21T01:59:26.967Z,98.00
2017-06-21T02:01:54.470Z,98.00
2017-06-21T02:04:22.104Z,98.60
2017-06-21T02:06:49.872Z,98.50
2017-06-21T02:09:17.367Z,99.50
2017-06-21T02:11:44.864Z,99.40
2017-06-21T02:14:12.372Z,99.40
2017-06-21T02:16:39.881Z,99.20
2017-06-21T02:19:07.672Z,99.40
2017-06-21T02:21:35.167Z,99.20
2017-06-21T02:24:02.660Z,99.20
2017-06-21T02:26:30.181Z,98.60
2017-06-21T02:28:57.679Z,98.70
2017-06-21T02:31:25.460Z,98.80
2017-06-21T02:33:52.952Z,99.30
2017-06-21T02:36:20.456Z,99.10
2017-06-21T02:38:47.968Z,99.90
2017-06-21T02:41:15.470Z,99.70
2017-06-21T02:43:43.302Z,99.30
2017-06-21T02:46:10.804Z,99.70
2017-06-21T02:48:38.300Z,99.50
2017-06-21T02:51:06.569Z,99.70
2017-06-21T02:53:34.067Z,99.70
2017-06-21T02:56:01.979Z,99.80
2017-06-21T02:58:29.478Z,99.70
2017-06-21T03:00:56.976Z,99.70
2017-06-21T03:03:24.481Z,99.90
2017-06-21T03:05:51.986Z,99.90
2017-06-21T03:08:19.789Z,99.90
2017-06-21T03:10:47.286Z,99.90
2017-06-21T03:13:14.786Z,99.90
2017-06-21T03:15:42.311Z,99.90
2017-06-21T03:18:09.809Z,99.90
2017-06-21T03:20:37.631Z,99.90
2017-06-21T03:23:06.036Z,99.90
2017-06-21T03:25:33.526Z,99.90
2017-06-21T03:28:01.028Z,99.90
2017-06-21T03:30:28.523Z,99.90
2017-06-21T03:32:56.320Z,99.90
2017-06-21T03:35:23.828Z,99.90
2017-06-21T03:37:51.324Z,99.90
2017-06-21T03:40:18.852Z,99.90
2017-06-21T03:42:46.351Z,99.90
2017-06-21T03:45:14.139Z,99.90
2017-06-21T03:47:41.659Z,99.90
2017-06-21T03:50:09.158Z,99.90
2017-06-21T03:52:36.672Z,99.90
2017-06-21T03:55:04.179Z,99.90
2017-06-21T03:57:31.957Z,99.90
2017-06-21T03:59:59.460Z,99.90
2017-06-21T04:02:26.961Z,99.90
2017-06-21T04:04:54.464Z,99.90
2017-06-21T04:07:21.965Z,99.90
2017-06-21T04:09:50.288Z,99.90
2017-06-21T04:12:17.788Z,99.90
2017-06-21T04:14:45.284Z,99.90
2017-06-21T04:17:12.783Z,99.90
2017-06-21T04:19:40.287Z,99.90
2017-06-21T04:22:08.072Z,99.90
2017-06-21T04:24:35.569Z,99.90
2017-06-21T04:27:03.064Z,99.90
2017-06-21T04:29:30.580Z,99.90
2017-06-21T04:31:58.080Z,99.90
2017-06-21T04:34:25.863Z,99.90
2017-06-21T04:36:53.367Z,99.90
2017-06-21T04:39:20.869Z,99.90
2017-06-21T04:41:48.385Z,99.90
2017-06-21T04:44:15.887Z,99.90
2017-06-21T04:46:43.664Z,99.90
2017-06-21T04:49:11.161Z,99.90
2017-06-21T04:51:38.669Z,99.90
2017-06-21T04:54:06.944Z,99.90
2017-06-21T04:56:34.437Z,99.90
2017-06-21T04:59:02.243Z,99.90
2017-06-21T05:01:29.750Z,99.90
2017-06-21T05:03:57.252Z,99.90
2017-06-21T05:06:24.773Z,99.90
2017-06-21T05:08:52.276Z,99.90
2017-06-21T05:11:20.092Z,99.90
2017-06-21T05:13:47.583Z,99.90
2017-06-21T05:16:15.084Z,99.90
2017-06-21T05:18:42.591Z,99.90
2017-06-21T05:21:10.089Z,99.90
2017-06-21T05:23:37.607Z,99.90
2017-06-21T05:26:06.226Z,99.90
2017-06-21T05:28:33.732Z,99.90
2017-06-21T05:31:01.515Z,99.90
2017-06-21T05:33:29.009Z,99.90
2017-06-21T05:35:56.507Z,99.80
2017-06-21T05:38:25.037Z,99.60
2017-06-21T05:40:52.542Z,99.60
2017-06-21T05:43:20.040Z,99.90
2017-06-21T05:45:47.586Z,99.90
2017-06-21T05:48:15.075Z,99.90
2017-06-21T05:50:42.907Z,99.70
2017-06-21T05:53:10.416Z,99.10
2017-06-21T05:55:37.916Z,99.80
2017-06-21T05:58:05.426Z,98.80
2017-06-21T06:00:32.923Z,98.50
2017-06-21T06:03:00.720Z,97.90
2017-06-21T06:05:28.224Z,97.80
2017-06-21T06:07:55.737Z,98.40
2017-06-21T06:10:23.244Z,97.10
2017-06-21T06:12:50.737Z,97.60
2017-06-21T06:15:19.336Z,97.10
2017-06-21T06:17:46.850Z,97.10
2017-06-21T06:20:14.363Z,96.20
2017-06-21T06:22:41.979Z,95.70
2017-06-21T06:25:10.244Z,97.70
2017-06-21T06:27:38.024Z,97.50
2017-06-21T06:30:05.516Z,96.60
2017-06-21T06:32:33.019Z,95.50
2017-06-21T06:35:00.541Z,95.60
2017-06-21T06:37:28.080Z,95.50
2017-06-21T06:39:55.860Z,97.00
2017-06-21T06:42:23.355Z,95.90
2017-06-21T06:44:50.868Z,95.10
2017-06-21T06:47:18.375Z,94.70
2017-06-21T06:49:45.872Z,94.80
2017-06-21T06:52:14.401Z,93.90
2017-06-21T06:54:41.947Z,93.80
2017-06-21T06:57:09.485Z,94.20
2017-06-21T06:59:37.753Z,93.50
2017-06-21T07:02:06.021Z,93.50
2017-06-21T07:04:33.780Z,93.50
2017-06-21T07:07:01.273Z,92.00
2017-06-21T07:09:28.778Z,91.70
2017-06-21T07:11:56.286Z,92.40
2017-06-21T07:14:23.775Z,92.10
2017-06-21T07:16:51.556Z,91.70
2017-06-21T07:19:19.064Z,91.30
2017-06-21T07:21:46.565Z,90.70
2017-06-21T07:24:14.088Z,91.90
2017-06-21T07:26:41.600Z,90.80
2017-06-21T07:29:09.403Z,90.30
2017-06-21T07:31:37.673Z,90.00
2017-06-21T07:34:05.939Z,88.40
2017-06-21T07:36:33.453Z,88.30
2017-06-21T07:39:02.076Z,89.20
2017-06-21T07:41:29.841Z,89.70
2017-06-21T07:43:57.342Z,90.40
2017-06-21T07:46:24.843Z,87.80
2017-06-21T07:48:52.379Z,88.30
2017-06-21T07:51:20.662Z,85.90
2017-06-21T07:53:48.451Z,85.90
2017-06-21T07:56:15.949Z,84.70
2017-06-21T07:58:43.450Z,82.70
2017-06-21T08:11:07.419Z,79.90
2017-06-21T08:13:34.935Z,80.30
2017-06-21T08:16:02.427Z,79.20
2017-06-21T08:18:30.192Z,79.10
2017-06-21T08:23:26.537Z,78.20
2017-06-21T08:48:14.400Z,72.40
2017-06-21T08:50:41.940Z,72.20
2017-06-21T08:53:10.217Z,71.90
2017-06-21T08:55:37.980Z,71.80
2017-06-21T08:58:05.479Z,68.90
2017-06-21T09:00:32.991Z,69.40
2017-06-21T09:03:00.491Z,68.10
2017-06-21T09:05:27.987Z,67.90
2017-06-21T09:07:55.818Z,67.30
2017-06-21T09:10:24.079Z,69.00
2017-06-21T09:12:51.588Z,67.80
2017-06-21T09:15:19.107Z,67.00
2017-06-21T09:17:46.612Z,68.10
2017-06-21T09:20:14.401Z,67.90
2017-06-21T09:22:41.915Z,69.60
2017-06-21T09:25:09.408Z,68.00
2017-06-21T09:27:36.916Z,67.50
2017-06-21T09:30:04.413Z,68.50
2017-06-21T09:32:32.254Z,66.10
2017-06-21T09:42:26.309Z,64.10
2017-06-21T09:44:54.101Z,64.50
2017-06-21T09:47:22.375Z,65.00
2017-06-21T09:49:49.876Z,65.00
2017-06-21T09:52:17.393Z,63.80
2017-06-21T10:07:09.449Z,59.80
2017-06-21T10:22:01.781Z,59.80
2017-06-21T10:24:29.297Z,59.90
2017-06-21T10:26:56.801Z,61.40
2017-06-21T10:29:24.315Z,58.50
2017-06-21T10:31:52.577Z,59.90
2017-06-21T10:34:20.441Z,59.10
2017-06-21T10:36:47.937Z,60.10
2017-06-21T10:39:15.448Z,56.50
2017-06-21T10:41:42.958Z,57.90
2017-06-21T10:44:10.467Z,57.40
2017-06-21T10:46:38.258Z,59.30
2017-06-21T10:49:05.776Z,58.90
2017-06-21T10:51:33.290Z,58.50
2017-06-21T10:54:01.573Z,55.90
2017-06-21T10:56:29.839Z,57.40
2017-06-21T10:58:57.630Z,57.20
2017-06-21T11:03:53.994Z,56.20
2017-06-21T11:06:21.511Z,57.90
2017-06-21T11:08:49.784Z,51.10
2017-06-21T11:11:17.577Z,50.20
2017-06-21T11:23:40.825Z,50.10
2017-06-21T11:26:08.339Z,54.70
2017-06-21T11:28:35.848Z,51.30
2017-06-21T11:31:03.364Z,52.00
2017-06-21T11:33:31.656Z,52.50
2017-06-21T11:35:59.447Z,52.40
2017-06-21T11:38:26.938Z,51.30
2017-06-21T11:40:54.437Z,50.00
2017-06-21T11:43:21.946Z,47.70
2017-06-21T11:45:49.448Z,48.90
2017-06-21T11:48:18.012Z,48.70
2017-06-21T11:50:45.516Z,48.80
2017-06-21T11:53:13.007Z,47.40
2017-06-21T11:55:40.532Z,50.10
2017-06-21T11:58:08.032Z,47.80
2017-06-21T12:00:37.001Z,48.30
2017-06-21T12:03:04.502Z,49.30
2017-06-21T12:05:32.016Z,49.30
2017-06-21T12:07:59.816Z,48.60
2017-06-21T12:10:27.329Z,48.30
2017-06-21T12:12:54.828Z,46.70
2017-06-21T12:15:23.491Z,49.40
2017-06-21T12:17:50.985Z,49.50
2017-06-21T12:20:18.497Z,48.10
2017-06-21T12:22:46.302Z,47.10
2017-06-21T12:25:14.942Z,47.10
2017-06-21T12:27:42.440Z,48.10
2017-06-21T12:30:10.214Z,46.20
2017-06-21T12:32:37.721Z,45.60
2017-06-21T12:35:05.214Z,46.10
2017-06-21T12:37:32.722Z,45.80
2017-06-21T12:40:00.989Z,44.40
2017-06-21T12:42:28.749Z,44.80
2017-06-21T12:44:56.252Z,45.80
2017-06-21T12:47:23.753Z,46.30
2017-06-21T12:49:51.269Z,45.40
2017-06-21T12:52:19.930Z,47.50
2017-06-21T12:54:47.719Z,48.10
2017-06-21T12:57:15.232Z,48.00
2017-06-21T12:59:42.754Z,46.40
2017-06-21T13:02:10.277Z,46.70
2017-06-21T13:04:38.552Z,45.40
2017-06-21T13:07:06.330Z,45.30
2017-06-21T13:09:33.838Z,43.50
2017-06-21T13:12:02.493Z,45.90
2017-06-21T13:14:30.019Z,46.10
2017-06-21T13:16:58.287Z,44.70
2017-06-21T13:19:26.080Z,44.50
2017-06-21T13:21:53.588Z,43.60
2017-06-21T13:24:22.220Z,44.00
2017-06-21T13:29:18.583Z,44.40
2017-06-21T13:31:46.459Z,44.90
2017-06-21T13:34:13.952Z,43.60
2017-06-21T13:36:42.603Z,41.40
2017-06-21T13:39:10.097Z,41.90
2017-06-21T13:41:37.593Z,41.90
2017-06-21T13:44:06.210Z,43.20
2017-06-21T13:46:33.717Z,42.90
2017-06-21T13:49:02.631Z,41.30
2017-06-21T13:51:30.144Z,41.90
2017-06-21T13:53:57.651Z,41.60
2017-06-21T13:56:25.446Z,41.20
2017-06-21T13:58:52.947Z,43.00
2017-06-21T14:01:20.454Z,42.50
2017-06-21T14:03:47.991Z,41.60
2017-06-21T14:06:15.484Z,42.40
2017-06-21T14:08:43.267Z,41.70
2017-06-21T14:13:41.134Z,44.40
2017-06-21T14:16:08.652Z,44.40
2017-06-21T14:18:36.912Z,45.40
2017-06-21T14:21:04.685Z,44.40
2017-06-21T14:23:32.181Z,44.80
2017-06-21T14:25:59.701Z,45.50
2017-06-21T14:28:27.237Z,45.60
2017-06-21T14:30:54.747Z,45.20
2017-06-21T14:33:23.355Z,45.20
2017-06-21T14:45:46.993Z,44.30
2017-06-21T14:48:14.499Z,47.30
2017-06-21T14:50:42.017Z,45.80
2017-06-21T14:53:09.533Z,47.00
2017-06-21T14:55:37.030Z,45.40
2017-06-21T14:58:04.829Z,45.80
2017-06-21T15:00:32.340Z,44.40
2017-06-21T15:02:59.899Z,45.60
2017-06-21T15:05:27.412Z,45.60
2017-06-21T15:07:54.916Z,45.10
2017-06-21T15:10:23.460Z,46.30
2017-06-21T15:12:50.965Z,46.30
2017-06-21T15:15:18.457Z,45.50
2017-06-21T15:17:45.984Z,44.90
2017-06-21T15:20:13.468Z,45.90
2017-06-21T15:22:41.269Z,45.90
2017-06-21T15:25:08.775Z,48.00
2017-06-21T15:27:36.277Z,47.70
2017-06-21T15:30:03.807Z,47.60
2017-06-21T15:32:31.301Z,46.50
2017-06-21T15:34:59.066Z,46.80
2017-06-21T15:37:26.556Z,46.30
2017-06-21T15:39:54.070Z,47.40
2017-06-21T15:42:21.717Z,48.20
2017-06-21T15:44:49.240Z,49.00
2017-06-21T15:49:45.854Z,48.30
2017-06-21T15:52:13.384Z,47.70
2017-06-21T15:54:40.889Z,49.10
2017-06-21T15:57:08.388Z,47.20
2017-06-21T15:59:36.153Z,48.30
2017-06-21T16:04:32.501Z,47.70
2017-06-21T16:11:58.400Z,48.40
2017-06-21T16:39:15.852Z,48.80
2017-06-21T16:41:43.372Z,49.40
2017-06-21T16:44:10.884Z,50.20
2017-06-21T16:46:38.387Z,48.40
2017-06-21T16:49:06.145Z,47.20
2017-06-21T16:51:33.652Z,46.70
2017-06-21T16:54:01.931Z,46.90
2017-06-21T16:56:29.441Z,46.80
2017-06-21T16:58:56.950Z,47.60
2017-06-21T17:01:24.749Z,47.00
2017-06-21T17:03:52.270Z,46.70
2017-06-21T17:06:19.784Z,46.80
2017-06-21T17:08:47.320Z,46.70
2017-06-21T17:11:14.818Z,47.60
2017-06-21T17:13:42.609Z,46.50
2017-06-21T17:16:10.110Z,46.80
2017-06-21T17:18:37.607Z,46.90
2017-06-21T17:21:05.116Z,46.60
2017-06-21T17:23:32.624Z,49.10
2017-06-21T17:26:00.437Z,46.90
2017-06-21T17:28:27.940Z,48.50
2017-06-21T17:30:55.453Z,47.70
2017-06-21T17:33:22.973Z,47.80
2017-06-21T17:35:50.535Z,48.10
2017-06-21T17:38:18.326Z,47.40
2017-06-21T17:40:45.832Z,47.70
2017-06-21T17:43:13.336Z,47.50
2017-06-21T17:45:40.844Z,49.00
2017-06-21T17:48:08.341Z,48.00
2017-06-21T17:50:36.143Z,48.90
2017-06-21T17:53:03.658Z,49.00
2017-06-21T17:55:31.179Z,49.60
2017-06-21T17:57:58.692Z,49.20
2017-06-21T18:00:26.208Z,48.90
2017-06-21T18:02:54.004Z,49.70
2017-06-21T18:05:21.623Z,49.20
2017-06-21T18:07:49.129Z,49.80
2017-06-21T18:10:16.639Z,49.90
2017-06-21T18:12:44.149Z,49.20
2017-06-21T18:15:11.946Z,49.60
2017-06-21T18:17:39.446Z,49.70
2017-06-21T18:20:06.943Z,50.10
2017-06-21T18:22:35.484Z,49.60
2017-06-21T18:25:02.992Z,49.60
2017-06-21T18:27:30.487Z,49.90
2017-06-21T18:29:58.242Z,49.80
2017-06-21T18:32:25.732Z,50.50
2017-06-21T18:34:53.256Z,50.60
2017-06-21T18:37:20.781Z,50.60
2017-06-21T18:39:49.073Z,51.50
2017-06-21T18:42:16.851Z,51.50
2017-06-21T18:44:44.376Z,50.40
2017-06-21T18:47:11.891Z,51.10
2017-06-21T18:49:39.402Z,51.30
2017-06-21T18:52:06.905Z,51.20
2017-06-21T18:54:34.769Z,51.80
2017-06-21T18:57:02.376Z,51.70
2017-06-21T18:59:29.879Z,51.90
2017-06-21T19:01:57.404Z,52.10
2017-06-21T19:04:24.912Z,52.30
2017-06-21T19:06:52.781Z,52.80
2017-06-21T19:09:20.301Z,53.60
2017-06-21T19:11:48.590Z,53.90
2017-06-21T19:14:16.124Z,53.90
2017-06-21T19:16:43.633Z,54.10
2017-06-21T19:19:11.436Z,54.10
2017-06-21T19:21:40.071Z,53.40
2017-06-21T19:24:07.572Z,54.00
2017-06-21T19:26:35.085Z,54.30
2017-06-21T19:29:02.596Z,55.10
2017-06-21T19:31:30.493Z,55.40
2017-06-21T19:33:57.996Z,56.00
2017-06-21T19:36:25.497Z,55.80
2017-06-21T19:38:53.008Z,56.40
2017-06-21T19:41:20.514Z,56.60
2017-06-21T19:43:48.276Z,57.00
2017-06-21T19:46:15.802Z,57.30
2017-06-21T19:48:43.296Z,57.90
2017-06-21T19:51:10.828Z,57.80
2017-06-21T19:53:38.344Z,58.70
2017-06-21T19:56:06.115Z,58.80
2017-06-21T19:58:33.639Z,59.00
2017-06-21T20:01:01.140Z,59.60
2017-06-21T20:03:28.669Z,60.10
2017-06-21T20:05:56.197Z,60.10
2017-06-21T20:08:23.986Z,60.00
2017-06-21T20:10:51.509Z,60.40
2017-06-21T20:13:19.014Z,60.50
2017-06-21T20:15:46.528Z,60.20
2017-06-21T20:18:14.041Z,60.80
2017-06-21T20:20:41.843Z,60.10
2017-06-21T20:23:09.352Z,60.00
2017-06-21T20:25:36.958Z,60.20
2017-06-21T20:28:04.483Z,59.90
2017-06-21T20:30:31.981Z,59.90
2017-06-21T20:32:59.825Z,60.20
2017-06-21T20:35:27.322Z,60.20
2017-06-21T20:37:54.849Z,60.50
2017-06-21T20:40:22.388Z,61.30
2017-06-21T20:42:49.891Z,61.30
2017-06-21T20:45:17.667Z,60.60
2017-06-21T20:47:45.184Z,60.70
2017-06-21T20:50:13.446Z,60.80
2017-06-21T20:52:40.969Z,60.70
2017-06-21T20:55:08.499Z,60.80
2017-06-21T20:57:36.298Z,60.90
2017-06-21T21:00:03.810Z,61.00
2017-06-21T21:02:31.322Z,60.80
2017-06-21T21:04:58.834Z,60.80
2017-06-21T21:07:26.346Z,60.90
2017-06-21T21:09:54.132Z,61.10
2017-06-21T21:12:21.614Z,61.10
2017-06-21T21:14:49.892Z,61.80
2017-06-21T21:17:18.176Z,61.60
2017-06-21T21:19:45.665Z,61.50
2017-06-21T21:22:13.453Z,61.50
2017-06-21T21:24:40.960Z,62.20
2017-06-21T21:27:08.469Z,62.40
2017-06-21T21:29:36.002Z,62.40
2017-06-21T21:32:03.495Z,62.50
2017-06-21T21:34:31.288Z,62.90
2017-06-21T21:36:59.555Z,63.10
2017-06-21T21:39:27.034Z,63.00
2017-06-21T21:41:54.566Z,62.90
2017-06-21T21:44:22.045Z,63.80
2017-06-21T21:46:49.820Z,64.10
2017-06-21T21:49:17.329Z,64.30
2017-06-21T21:51:44.831Z,64.40
2017-06-21T21:54:12.369Z,64.60
2017-06-21T21:56:39.879Z,67.50
2017-06-21T21:59:07.407Z,68.70
2017-06-21T22:01:34.908Z,70.80
2017-06-21T22:04:02.694Z,72.70
2017-06-21T22:06:30.183Z,73.30
2017-06-21T22:08:57.686Z,74.70
2017-06-21T22:11:25.185Z,76.40
2017-06-21T22:13:52.680Z,77.20
2017-06-21T22:16:20.471Z,77.50
2017-06-21T22:18:47.974Z,78.00
2017-06-21T22:21:15.485Z,78.40
2017-06-21T22:23:42.986Z,78.40
2017-06-21T22:26:10.492Z,79.70
2017-06-21T22:28:38.279Z,79.20
2017-06-21T22:31:05.788Z,79.70
2017-06-21T22:33:33.292Z,79.40
2017-06-21T22:36:00.801Z,79.00
2017-06-21T22:38:28.287Z,78.80
2017-06-21T22:40:56.166Z,79.40
2017-06-21T22:43:23.670Z,80.10
2017-06-21T22:45:51.174Z,79.70
2017-06-21T22:48:18.703Z,80.10
2017-06-21T22:50:46.185Z,79.60
2017-06-21T22:53:13.966Z,79.90
2017-06-21T22:55:41.468Z,80.60
2017-06-21T22:58:08.951Z,80.80
2017-06-21T23:00:36.465Z,80.70
2017-06-21T23:03:03.959Z,81.20
2017-06-21T23:05:31.465Z,82.00
2017-06-21T23:07:59.328Z,82.30
2017-06-21T23:10:26.824Z,82.60
2017-06-21T23:12:54.302Z,83.10
2017-06-21T23:15:21.927Z,83.60
2017-06-21T23:17:49.423Z,83.80
2017-06-21T23:20:17.233Z,83.80
2017-06-21T23:22:44.711Z,84.80
2017-06-21T23:25:12.204Z,85.20
2017-06-21T23:27:39.708Z,85.20
2017-06-21T23:30:07.207Z,85.20
2017-06-21T23:32:34.989Z,86.60
2017-06-21T23:35:02.478Z,86.30
2017-06-21T23:37:29.967Z,86.90
2017-06-21T23:39:57.483Z,86.80
2017-06-21T23:42:24.978Z,86.90
2017-06-21T23:44:52.755Z,87.10
2017-06-21T23:47:20.248Z,86.90
2017-06-21T23:49:47.752Z,86.10
2017-06-21T23:52:15.246Z,87.30
2017-06-21T23:54:42.759Z,87.50
2017-06-21T23:57:10.551Z,87.00
2017-06-21T23:59:38.037Z,88.00
